M I D A S
Marine Information and Data Acquisition System
Tripno 672 of the Zeeleeuw from 2004-03-19 07:12:58 to 2004-03-19 13:07:22
Back to CruiseResearch ActivitiesStationsMapUnderway DataData graphs

EquipmentUnitsComment
TimeDGPSUTC
LatitudeDGPSDM.mWGS84
LongitudeDGPSDM.mWGS84
HeadingGyrodeg 
SOGDGPSknotsSpeed over ground
COGDGPSdegCourse over ground
DepthEcho soundermeters200 kHz
Missing or incorrect values are displayed as -999
Navigation data collected by the RV Zeeleeuw from 2004-03-19 07:12:58 to 2004-03-19 13:07:22
Time Latitude Longitude Heading SOG COG Depth
2004-03-19 07:13:59 51°13.605 2°56.055 113.7 0.2 353 8.4
2004-03-19 07:14:59 51°13.58 2°56.111 140.1 3.3 136 8.3
2004-03-19 07:15:59 51°13.538 2°56.192 125.7 4 118 8.8
2004-03-19 07:16:59 51°13.538 2°56.248 68.8 0.5 254 8.5
2004-03-19 07:17:59 51°13.536 2°56.232 52.9 1.6 44 -999
2004-03-19 07:18:59 51°13.534 2°56.238 21.7 1.6 195 -999
2004-03-19 07:19:59 51°13.536 2°56.232 348.9 1.4 350 -999
2004-03-19 07:20:59 51°13.532 2°56.237 319.3 0.9 326 -999
2004-03-19 07:21:59 51°13.539 2°56.214 292.9 1.4 283 8.7
2004-03-19 07:22:59 51°13.551 2°56.178 301 1.5 301 8.7
2004-03-19 07:23:59 51°13.563 2°56.144 303.1 1.4 301 8.7
2004-03-19 07:24:59 51°13.573 2°56.111 301.5 1.6 295 8.8
2004-03-19 07:25:59 51°13.585 2°56.073 305.1 1.6 302 8.7
2004-03-19 07:26:59 51°13.599 2°56.037 307.7 1.6 305 8.6
2004-03-19 07:28:01 51°13.616 2°55.999 308.5 1.9 304 8.9
2004-03-19 07:28:59 51°13.644 2°55.931 307.4 4 304 9.5
2004-03-19 07:29:59 51°13.692 2°55.821 310.1 6.1 306 9.4
2004-03-19 07:30:59 51°13.773 2°55.683 324.7 7.8 322 8.6
2004-03-19 07:31:59 51°13.888 2°55.585 341.6 7.8 336 8.7
2004-03-19 07:32:59 51°14.008 2°55.5 340.6 8.1 336 9.4
2004-03-19 07:33:59 51°14.15 2°55.396 340.4 10.4 335 10
2004-03-19 07:34:59 51°14.287 2°55.221 319.2 10.7 314 -999
2004-03-19 07:35:59 51°14.4 2°54.98 307.7 12 298 9.8
2004-03-19 07:36:59 51°14.423 2°54.641 272.1 13.7 264 9.7
2004-03-19 07:37:59 51°14.335 2°54.305 244.9 13.9 239 8.5
2004-03-19 07:38:59 51°14.207 2°53.994 242.8 14.1 239 8.2
2004-03-19 07:39:59 51°14.083 2°53.675 243.8 14.2 240 8.2
2004-03-19 07:40:59 51°13.962 2°53.348 246.6 14.3 243 8.5
2004-03-19 07:41:59 51°13.851 2°53.01 245.8 14.4 242 8.8
2004-03-19 07:42:59 51°13.737 2°52.672 245.6 14.5 242 9.2
2004-03-19 07:43:59 51°13.623 2°52.332 246.1 14.6 242 9.6
2004-03-19 07:44:59 51°13.507 2°51.992 246.4 14.5 242 9.6
2004-03-19 07:45:59 51°13.392 2°51.654 245.7 14.5 241 9.8
2004-03-19 07:46:59 51°13.277 2°51.316 246.7 14.5 242 9.6
2004-03-19 07:47:59 51°13.164 2°50.974 246.2 14.5 242 10
2004-03-19 07:48:59 51°13.05 2°50.634 245.8 14.5 242 10.1
2004-03-19 07:49:59 51°12.938 2°50.293 246.4 14.5 242 10.3
2004-03-19 07:50:59 51°12.826 2°49.953 246.2 14.5 242 10.4
2004-03-19 07:51:59 51°12.714 2°49.613 246.4 14.5 243 10.7
2004-03-19 07:52:59 51°12.605 2°49.273 246.4 14.4 243 10.9
2004-03-19 07:53:59 51°12.494 2°48.937 245.9 14.5 243 11
2004-03-19 07:54:59 51°12.38 2°48.594 246.5 14.4 243 11.2
2004-03-19 07:55:59 51°12.268 2°48.253 246.5 14.4 243 11.3
2004-03-19 07:56:59 51°12.158 2°47.915 246.1 14.3 242 11.4
2004-03-19 07:57:59 51°12.049 2°47.578 246.4 14.3 243 11.4
2004-03-19 07:58:59 51°11.939 2°47.241 246 14.4 243 11.4
2004-03-19 07:59:59 51°11.843 2°46.894 251 14.3 247 11.6
2004-03-19 08:00:59 51°11.749 2°46.546 250.7 14.4 247 11.8
2004-03-19 08:01:59 51°11.656 2°46.197 251.1 14.3 247 11.9
2004-03-19 08:02:59 51°11.562 2°45.848 249.7 14.4 246 11.8
2004-03-19 08:03:59 51°11.468 2°45.498 250.3 14.3 247 11.7
2004-03-19 08:04:59 51°11.374 2°45.149 250.5 14.3 247 11.6
2004-03-19 08:05:59 51°11.28 2°44.799 250.1 14.3 247 11.5
2004-03-19 08:06:59 51°11.187 2°44.451 249.8 14.3 247 11.4
2004-03-19 08:07:59 51°11.094 2°44.102 250.2 14.3 247 11.3
2004-03-19 08:08:59 51°11.002 2°43.755 250.4 14.3 247 11.2
2004-03-19 08:09:59 51°10.909 2°43.407 250.5 14.3 248 11.2
2004-03-19 08:10:59 51°10.817 2°43.06 251 14.2 247 11
2004-03-19 08:11:59 51°10.723 2°42.713 250.4 14.2 247 11
2004-03-19 08:12:59 51°10.632 2°42.368 250.4 14.1 247 10.9
2004-03-19 08:13:59 51°10.544 2°42.022 252.7 14 249 10.8
2004-03-19 08:14:59 51°10.461 2°41.673 252.7 14.1 249 11
2004-03-19 08:15:59 51°10.377 2°41.326 252.1 14 249 11.1
2004-03-19 08:16:59 51°10.294 2°40.981 252.2 13.9 249 11
2004-03-19 08:17:59 51°10.212 2°40.635 252.6 13.9 250 11.1
2004-03-19 08:18:59 51°10.131 2°40.29 252.5 13.9 250 11.1
2004-03-19 08:19:59 51°10.048 2°39.946 252.1 13.9 249 11.2
2004-03-19 08:20:59 51°9.966 2°39.602 252.9 13.9 250 11.2
2004-03-19 08:21:59 51°9.884 2°39.258 252.1 13.9 249 11.5
2004-03-19 08:22:59 51°9.803 2°38.914 252.6 13.9 250 11.7
2004-03-19 08:23:59 51°9.722 2°38.571 251.9 13.9 249 11.9
2004-03-19 08:24:59 51°9.641 2°38.227 252.3 13.9 249 12.3
2004-03-19 08:25:59 51°9.561 2°37.884 252 13.8 249 12.5
2004-03-19 08:26:59 51°9.48 2°37.541 252.5 13.8 250 12.9
2004-03-19 08:27:59 51°9.399 2°37.199 252.1 13.8 250 13.5
2004-03-19 08:28:59 51°9.318 2°36.856 252.5 13.8 250 14.1
2004-03-19 08:29:59 51°9.24 2°36.514 252.3 13.7 250 15.2
2004-03-19 08:30:59 51°9.161 2°36.175 250.4 13.7 248 15.5
2004-03-19 08:31:59 51°9.075 2°35.84 250 13.7 248 16
2004-03-19 08:32:59 51°8.99 2°35.505 250 13.7 248 16.3
2004-03-19 08:33:59 51°8.904 2°35.169 250.4 13.6 248 16.5
2004-03-19 08:34:59 51°8.818 2°34.833 250.4 13.6 248 16.8
2004-03-19 08:35:59 51°8.733 2°34.499 250 13.7 247 17
2004-03-19 08:36:59 51°8.648 2°34.166 250.4 13.6 247 16.9
2004-03-19 08:37:59 51°8.556 2°33.84 248.3 13.5 246 17.5
2004-03-19 08:38:59 51°8.463 2°33.514 247.8 13.5 246 17.2
2004-03-19 08:39:59 51°8.372 2°33.188 248.9 13.4 246 16.4
2004-03-19 08:40:59 51°8.295 2°32.966 230.9 5.9 230 16.9
2004-03-19 08:41:59 51°8.285 2°32.933 281.4 1.1 61 17.2
2004-03-19 08:42:59 51°8.293 2°32.951 310.2 0.8 34 17
2004-03-19 08:43:59 51°8.313 2°32.941 313.6 1.6 336 16.9
2004-03-19 08:44:59 51°8.339 2°32.922 320.8 1.8 337 16.9
2004-03-19 08:45:59 51°8.366 2°32.906 324.2 1.6 341 17.3
2004-03-19 08:46:59 51°8.392 2°32.893 324.9 1.7 343 17.4
2004-03-19 08:47:59 51°8.419 2°32.881 325.8 1.7 343 17.6
2004-03-19 08:48:59 51°8.446 2°32.866 323.7 1.6 339 18.2
2004-03-19 08:49:59 51°8.471 2°32.851 321.4 1.7 341 18.2
2004-03-19 08:50:59 51°8.496 2°32.842 326.8 1.4 348 18.4
2004-03-19 08:51:59 51°8.52 2°32.833 328.4 1.6 352 19.2
2004-03-19 08:52:59 51°8.548 2°32.827 332.6 1.8 353 19.8
2004-03-19 08:53:59 51°8.578 2°32.82 332.4 1.9 351 20.1
2004-03-19 08:54:59 51°8.609 2°32.813 331.7 1.9 350 20.4
2004-03-19 08:55:59 51°8.64 2°32.806 330.7 1.8 354 20.7
2004-03-19 08:56:59 51°8.67 2°32.802 330.3 1.9 356 20.3
2004-03-19 08:57:59 51°8.701 2°32.798 332.4 1.9 358 20
2004-03-19 08:58:59 51°8.733 2°32.795 334.5 2.1 358 19.8
2004-03-19 08:59:59 51°8.8 2°32.805 19.4 5.6 22 19.7
2004-03-19 09:00:59 51°8.92 2°32.963 44.2 12.8 40 19.6
2004-03-19 09:01:59 51°9.101 2°33.207 45.1 14.9 41 18.6
2004-03-19 09:02:59 51°9.285 2°33.465 47.1 14.8 48 17.3
2004-03-19 09:03:59 51°9.464 2°33.733 46.8 14.9 42 15.2
2004-03-19 09:04:59 51°9.642 2°34.005 45.5 14.9 40 13
2004-03-19 09:05:59 51°9.822 2°34.272 44.5 15 41 11.9
2004-03-19 09:06:59 51°10.001 2°34.543 46.9 14.7 44 12.1
2004-03-19 09:07:59 51°10.18 2°34.813 46.4 14.8 44 12.2
2004-03-19 09:08:59 51°10.365 2°35.068 41.5 14.5 38 11.2
2004-03-19 09:09:59 51°10.555 2°35.312 37.3 14.7 36 11
2004-03-19 09:10:59 51°10.751 2°35.544 39.6 14.7 40 11.2
2004-03-19 09:11:59 51°10.944 2°35.792 37.7 14.9 35 11.3
2004-03-19 09:12:59 51°11.143 2°36.026 36.8 14.8 36 11.6
2004-03-19 09:13:59 51°11.34 2°36.256 39.2 14.7 37 11.6
2004-03-19 09:14:59 51°11.534 2°36.489 39.5 14.7 38 12.1
2004-03-19 09:15:59 51°11.73 2°36.72 39.4 14.8 35 12.2
2004-03-19 09:16:59 51°11.927 2°36.947 38.4 14.5 37 12
2004-03-19 09:17:59 51°12.124 2°37.174 38.7 14.6 38 12.2
2004-03-19 09:18:59 51°12.32 2°37.403 38.8 14.6 36 12.8
2004-03-19 09:19:59 51°12.518 2°37.625 37 14.5 36 13.6
2004-03-19 09:20:59 51°12.711 2°37.858 37.7 14.8 36 14.3
2004-03-19 09:21:59 51°12.905 2°38.087 38.7 14.7 35 14.7
2004-03-19 09:22:59 51°13.101 2°38.321 37 14.8 32 15.5
2004-03-19 09:23:59 51°13.301 2°38.557 38.7 15 38 15.8
2004-03-19 09:24:59 51°13.501 2°38.791 35.9 14.7 37 15.9
2004-03-19 09:25:59 51°13.707 2°38.974 25.8 14.2 27 16.1
2004-03-19 09:26:59 51°13.933 2°39.061 4.1 13.6 3 15.4
2004-03-19 09:27:59 51°14.121 2°38.913 317 12.7 313 13.7
2004-03-19 09:28:59 51°14.249 2°38.648 300.4 12.5 294 17.2
2004-03-19 09:29:59 51°14.248 2°38.324 261.4 12.5 257 20.3
2004-03-19 09:30:59 51°14.197 2°38 259.4 12.5 256 20.9
2004-03-19 09:31:59 51°14.148 2°37.68 259.1 12.3 256 21.2
2004-03-19 09:32:59 51°14.103 2°37.364 259.5 12.1 258 19.7
2004-03-19 09:33:59 51°14.056 2°37.053 259.1 12 256 18.8
2004-03-19 09:34:59 51°14.01 2°36.745 260.3 11.8 258 18.2
2004-03-19 09:35:59 51°13.965 2°36.439 260 11.9 256 17.6
2004-03-19 09:36:59 51°13.918 2°36.133 259.5 12 255 17.3
2004-03-19 09:37:59 51°13.869 2°35.828 260 11.8 255 17.2
2004-03-19 09:38:59 51°13.821 2°35.525 260.4 12 255 16.8
2004-03-19 09:39:59 51°13.773 2°35.218 260.4 11.9 256 16.6
2004-03-19 09:40:59 51°13.725 2°34.914 260.7 11.8 256 15.2
2004-03-19 09:41:59 51°13.673 2°34.608 260.3 12 255 16.2
2004-03-19 09:42:59 51°13.623 2°34.297 261.3 12.1 256 21.3
2004-03-19 09:43:59 51°13.577 2°33.987 259.9 11.9 258 24.9
2004-03-19 09:44:59 51°13.53 2°33.676 260.6 12.1 258 25.6
2004-03-19 09:45:59 51°13.481 2°33.363 259.6 12.2 255 25.5
2004-03-19 09:46:59 51°13.433 2°33.049 260 12.2 256 25.9
2004-03-19 09:47:59 51°13.387 2°32.737 260.6 12.2 257 26.2
2004-03-19 09:48:59 51°13.341 2°32.424 259.8 12.1 256 27.1
2004-03-19 09:49:59 51°13.299 2°32.116 260.9 11.6 258 27
2004-03-19 09:50:59 51°13.26 2°31.814 260.1 11.8 258 27.3
2004-03-19 09:51:59 51°13.223 2°31.514 260.2 11.3 259 27
2004-03-19 09:52:59 51°13.19 2°31.249 259.1 7.9 260 25
2004-03-19 09:53:59 51°13.18 2°31.095 262.7 4.4 267 24.6
2004-03-19 09:54:59 51°13.15 2°30.985 237.8 5.5 228 23.3
2004-03-19 09:55:59 51°13.101 2°30.887 240.6 3.6 236 23
2004-03-19 09:56:59 51°13.097 2°30.882 241.2 1.1 44 23.3
2004-03-19 09:57:59 51°13.117 2°30.916 259.2 2.3 46 23.6
2004-03-19 09:58:59 51°13.14 2°30.972 291.5 2.4 60 24.3
2004-03-19 09:59:59 51°13.173 2°31.009 323.2 2.9 8 23.4
2004-03-19 10:00:59 51°13.218 2°31.018 317.3 2.8 11 23.1
2004-03-19 10:01:59 51°13.256 2°31.03 317.2 2.6 13 22.3
2004-03-19 10:02:59 51°13.29 2°31.046 318.1 2.2 22 21.9
2004-03-19 10:03:59 51°13.327 2°31.066 323.6 2.1 21 22.5
2004-03-19 10:04:59 51°13.365 2°31.088 328.6 2.5 14 21
2004-03-19 10:05:59 51°13.409 2°31.112 338.1 2.8 18 21.8
2004-03-19 10:06:59 51°13.457 2°31.141 344.9 3.1 21 20.7
2004-03-19 10:07:59 51°13.505 2°31.17 345.1 3.1 20 19.8
2004-03-19 10:08:59 51°13.555 2°31.206 355.9 3.5 24 19.4
2004-03-19 10:09:59 51°13.61 2°31.255 16.3 4.1 34 19.2
2004-03-19 10:10:59 51°13.66 2°31.34 60.3 4.5 60 19.9
2004-03-19 10:11:59 51°13.682 2°31.441 102.8 3.7 78 20.6
2004-03-19 10:12:59 51°13.688 2°31.527 128.4 3.1 81 23.6
2004-03-19 10:13:59 51°13.653 2°31.637 155.2 6.6 136 24.2
2004-03-19 10:14:59 51°13.536 2°31.673 203.3 7.6 195 25.7
2004-03-19 10:15:59 51°13.39 2°31.608 201.1 10.3 192 26.4
2004-03-19 10:16:59 51°13.216 2°31.547 201.7 11.6 193 27.5
2004-03-19 10:17:59 51°13.026 2°31.499 195.7 11.5 188 28.2
2004-03-19 10:18:59 51°12.832 2°31.461 196.6 11.9 186 26.9
2004-03-19 10:19:59 51°12.639 2°31.42 197 11.5 189 25.6
2004-03-19 10:20:59 51°12.449 2°31.384 196.6 11.5 187 25.9
2004-03-19 10:21:59 51°12.257 2°31.347 196.6 11.5 187 25.6
2004-03-19 10:22:59 51°12.064 2°31.31 197.1 11.8 187 24.2
2004-03-19 10:23:59 51°11.869 2°31.264 197 12 187 21.4
2004-03-19 10:24:59 51°11.672 2°31.216 197.5 12.1 190 18.9
2004-03-19 10:25:59 51°11.474 2°31.167 197.1 12 189 18.4
2004-03-19 10:26:59 51°11.277 2°31.116 196.6 11.8 190 19.3
2004-03-19 10:27:59 51°11.107 2°31.079 198.1 8.5 187 22.7
2004-03-19 10:28:59 51°11.031 2°31.104 179.2 2.4 120 24.3
2004-03-19 10:29:59 51°11.056 2°31.159 148.3 2.7 49 -999
2004-03-19 10:30:59 51°11.088 2°31.218 115.7 2.9 50 24.1
2004-03-19 10:31:59 51°11.118 2°31.285 109.2 3.2 57 24.1
2004-03-19 10:32:59 51°11.134 2°31.369 133.5 3.2 74 24.5
2004-03-19 10:33:59 51°11.15 2°31.445 138.9 3.1 68 24.3
2004-03-19 10:34:59 51°11.169 2°31.515 145.1 2.8 64 24.4
2004-03-19 10:35:59 51°11.187 2°31.583 150.2 2.8 64 24.4
2004-03-19 10:36:59 51°11.204 2°31.65 156.7 2.6 69 24
2004-03-19 10:37:59 51°11.214 2°31.717 169.1 2.4 79 23.6
2004-03-19 10:38:59 51°11.22 2°31.78 178.5 2.2 82 24.1
2004-03-19 10:39:59 51°11.226 2°31.835 198.1 1.8 75 23.6
2004-03-19 10:40:59 51°11.237 2°31.87 237.8 1.6 46 23.9
2004-03-19 10:41:59 51°11.256 2°31.868 248.6 1 317 23.4
2004-03-19 10:42:59 51°11.292 2°31.825 313.1 4.9 341 23.8
2004-03-19 10:43:59 51°11.383 2°31.863 15.2 5.6 27 24.3
2004-03-19 10:44:59 51°11.453 2°31.924 3.1 3.5 29 23.8
2004-03-19 10:45:59 51°11.467 2°31.985 355.7 2.3 68 -999
2004-03-19 10:46:59 51°11.494 2°32.045 356.8 2.9 44 23.9
2004-03-19 10:47:59 51°11.53 2°32.095 330.4 2.7 33 23.6
2004-03-19 10:48:59 51°11.565 2°32.137 301.8 2.6 34 23.8
2004-03-19 10:49:59 51°11.601 2°32.16 284.5 2.2 357 23.3
2004-03-19 10:50:59 51°11.641 2°32.055 277.1 7.2 287 21
2004-03-19 10:51:59 51°11.657 2°31.791 268.9 11.3 272 18.4
2004-03-19 10:52:59 51°11.63 2°31.496 257.7 11.5 259 18.9
2004-03-19 10:53:59 51°11.594 2°31.196 258.2 11.6 259 18.6
2004-03-19 10:54:59 51°11.562 2°30.897 260.5 11.3 260 19.5
2004-03-19 10:55:59 51°11.525 2°30.604 256.2 11.2 259 19.5
2004-03-19 10:56:59 51°11.486 2°30.314 257.8 11.2 260 20.3
2004-03-19 10:57:59 51°11.448 2°30.022 258.6 11.4 258 20.3
2004-03-19 10:58:59 51°11.408 2°29.732 258.7 11.2 258 22.3
2004-03-19 10:59:59 51°11.37 2°29.442 258.5 11.4 258 24.3
2004-03-19 11:00:59 51°11.334 2°29.153 260.5 11 260 25
2004-03-19 11:01:59 51°11.307 2°28.859 266.3 11 266 24.7
2004-03-19 11:02:59 51°11.29 2°28.567 265.2 11.2 264 24.5
2004-03-19 11:03:59 51°11.271 2°28.279 262.1 11 261 25.5
2004-03-19 11:04:59 51°11.246 2°27.994 262.6 10.7 262 24.9
2004-03-19 11:05:59 51°11.219 2°27.709 262.6 11 262 25.2
2004-03-19 11:06:59 51°11.19 2°27.42 262 11.2 261 26.7
2004-03-19 11:07:59 51°11.164 2°27.126 262.1 11.1 262 25.2
2004-03-19 11:08:59 51°11.138 2°26.835 262.4 11 264 25.4
2004-03-19 11:09:59 51°11.113 2°26.546 261.9 11.2 262 23.4
2004-03-19 11:10:59 51°11.088 2°26.26 262 10.8 263 21.4
2004-03-19 11:11:59 51°11.062 2°25.971 261.4 11 261 18.9
2004-03-19 11:12:59 51°11.037 2°25.685 262.6 10.9 263 17
2004-03-19 11:13:59 51°11.015 2°25.405 265.7 10.7 270 17.4
2004-03-19 11:14:59 51°11.106 2°25.136 311.1 13 321 23.4
2004-03-19 11:15:59 51°11.322 2°25.008 350.2 14.8 350 26.3
2004-03-19 11:16:59 51°11.575 2°25.049 6.9 15.3 3 29
2004-03-19 11:17:59 51°11.829 2°25.11 10.7 15.7 14 27.2
2004-03-19 11:18:59 51°12.08 2°25.218 16.9 15.8 13 28.6
2004-03-19 11:19:59 51°12.329 2°25.32 11.2 15.5 18 28.3
2004-03-19 11:20:59 51°12.573 2°25.442 23.2 15.8 23 28.1
2004-03-19 11:21:59 51°12.816 2°25.587 18.4 15.3 21 29
2004-03-19 11:22:59 51°13.056 2°25.736 22 15.3 28 29.7
2004-03-19 11:23:59 51°13.299 2°25.874 18.7 15.4 13 29.4
2004-03-19 11:24:59 51°13.538 2°26.017 21.4 15.5 16 29.5
2004-03-19 11:25:59 51°13.781 2°26.16 22.5 15.5 26 30.3
2004-03-19 11:26:59 51°14.019 2°26.309 23.2 15.7 19 30.1
2004-03-19 11:27:59 51°14.258 2°26.444 18.7 15 19 30.5
2004-03-19 11:28:59 51°14.495 2°26.584 22.7 15.6 19 30.3
2004-03-19 11:29:59 51°14.736 2°26.722 20.3 15.3 20 29.9
2004-03-19 11:30:59 51°14.938 2°26.858 33.3 10.8 30 30.2
2004-03-19 11:31:59 51°15.05 2°26.975 28.2 6.6 34 29.9
2004-03-19 11:32:59 51°15.104 2°27.081 80 4 60 29.9
2004-03-19 11:33:59 51°15.131 2°27.148 125.1 2.7 55 29.7
2004-03-19 11:34:59 51°15.162 2°27.201 126.6 2.7 46 31.1
2004-03-19 11:35:59 51°15.191 2°27.257 123.3 2.5 52 29.8
2004-03-19 11:36:59 51°15.22 2°27.314 125.9 2.7 54 30.2
2004-03-19 11:37:59 51°15.248 2°27.372 127.4 2.6 52 30.2
2004-03-19 11:38:59 51°15.271 2°27.435 131.3 2.8 64 30.5
2004-03-19 11:39:59 51°15.287 2°27.506 135.8 2.9 72 29.6
2004-03-19 11:40:59 51°15.303 2°27.577 136 2.8 75 30.1
2004-03-19 11:41:59 51°15.316 2°27.657 138.9 3.3 80 30.6
2004-03-19 11:42:59 51°15.324 2°27.736 148.7 2.8 78 30.6
2004-03-19 11:43:59 51°15.333 2°27.811 145.1 2.6 84 30.4
2004-03-19 11:44:59 51°15.34 2°27.886 150.6 3.3 77 30.7
2004-03-19 11:45:59 51°15.351 2°27.963 146.3 2.9 76 30.8
2004-03-19 11:46:59 51°15.36 2°28.041 148.6 2.7 83 31.2
2004-03-19 11:47:59 51°15.369 2°28.116 157.2 2.5 80 30.5
2004-03-19 11:48:59 51°15.382 2°28.19 154.6 2.9 74 30.8
2004-03-19 11:49:59 51°15.395 2°28.26 154.4 3.2 81 31.2
2004-03-19 11:50:59 51°15.387 2°28.402 117.3 5.7 90 31.9
2004-03-19 11:51:59 51°15.395 2°28.553 111.1 5.6 85 31.2
2004-03-19 11:52:58 51°15.407 2°28.7 108.1 5.8 81 31.2
2004-03-19 11:53:59 51°15.429 2°28.876 95.1 8.1 80 31.4
2004-03-19 11:54:59 51°15.534 2°29.176 62.6 15.5 55 31.3
2004-03-19 11:55:59 51°15.664 2°29.541 71.6 16.8 66 31.4
2004-03-19 11:56:59 51°15.759 2°29.932 79.9 16.2 72 31.3
2004-03-19 11:57:59 51°15.847 2°30.346 76.2 17 70 30.6
2004-03-19 11:58:59 51°15.932 2°30.749 80 16.7 70 31.2
2004-03-19 11:59:59 51°16.011 2°31.151 82.8 16.1 74 30
2004-03-19 12:00:59 51°16.068 2°31.557 84.4 14.7 78 29.7
2004-03-19 12:01:59 51°16.107 2°31.971 91.7 15.9 84 29.3
2004-03-19 12:02:59 51°16.109 2°32.375 106.8 15.7 100 27.6
2004-03-19 12:03:59 51°16.06 2°32.768 111 16.1 103 14.3
2004-03-19 12:04:59 51°15.999 2°33.152 121 14.7 116 10.9
2004-03-19 12:05:59 51°15.913 2°33.52 119.8 15.6 110 11.9
2004-03-19 12:06:59 51°15.838 2°33.889 116.3 14.7 100 15.5
2004-03-19 12:07:59 51°15.768 2°34.264 119.6 14.2 105 26
2004-03-19 12:08:59 51°15.704 2°34.629 113 15.2 105 28.4
2004-03-19 12:09:59 51°15.643 2°34.997 115.1 14.5 99 29.3
2004-03-19 12:10:59 51°15.582 2°35.367 115.4 14.6 105 29
2004-03-19 12:11:59 51°15.516 2°35.735 118.1 15.5 99 28.6
2004-03-19 12:12:59 51°15.445 2°36.101 121.5 14.2 107 22
2004-03-19 12:13:59 51°15.373 2°36.465 122.7 14.4 109 18.2
2004-03-19 12:14:59 51°15.288 2°36.825 122.6 15.5 108 15.9
2004-03-19 12:15:59 51°15.202 2°37.181 123.5 14.3 114 15.9
2004-03-19 12:16:59 51°15.11 2°37.539 124.5 14.1 111 12.9
2004-03-19 12:17:59 51°15.011 2°37.896 124.1 14.8 117 13.8
2004-03-19 12:18:59 51°14.922 2°38.256 121.1 15.2 105 18.3
2004-03-19 12:19:59 51°14.832 2°38.609 120.9 15.3 108 19.6
2004-03-19 12:20:59 51°14.743 2°38.963 123.1 14.7 114 19.1
2004-03-19 12:21:59 51°14.65 2°39.314 122.8 14.4 114 18.8
2004-03-19 12:22:59 51°14.563 2°39.668 120.9 14.2 101 16.6
2004-03-19 12:23:59 51°14.467 2°40.015 126.5 14.2 115 16.1
2004-03-19 12:24:59 51°14.391 2°40.377 115.8 14.7 110 16.3
2004-03-19 12:25:59 51°14.332 2°40.753 116.8 14.4 108 16.6
2004-03-19 12:26:59 51°14.269 2°41.125 114.6 14.4 108 17.2
2004-03-19 12:27:59 51°14.209 2°41.49 116.9 13.9 107 18.8
2004-03-19 12:28:59 51°14.196 2°41.879 95.4 14.7 84 19.9
2004-03-19 12:29:59 51°14.234 2°42.273 87.2 15.1 78 19.6
2004-03-19 12:30:59 51°14.271 2°42.68 91.4 15.2 84 19.4
2004-03-19 12:31:59 51°14.317 2°43.079 88 14.9 76 19.1
2004-03-19 12:32:59 51°14.368 2°43.476 87.8 16.3 78 18.7
2004-03-19 12:33:59 51°14.41 2°43.879 88.7 15.1 82 17.9
2004-03-19 12:34:59 51°14.453 2°44.28 86.1 15.2 78 16.7
2004-03-19 12:35:59 51°14.511 2°44.672 85.1 14.8 75 15.3
2004-03-19 12:36:59 51°14.567 2°45.066 84.3 15.1 75 13.8
2004-03-19 12:37:59 51°14.624 2°45.458 84 15.1 79 12.3
2004-03-19 12:38:59 51°14.665 2°45.857 90.5 14.2 83 11.4
2004-03-19 12:39:59 51°14.731 2°46.237 84.1 15 80 11.6
2004-03-19 12:40:59 51°14.779 2°46.62 88.2 14.7 77 12.7
2004-03-19 12:41:59 51°14.823 2°47.013 81.5 15 72 14.4
2004-03-19 12:42:59 51°14.897 2°47.398 80.7 15.3 74 15.1
2004-03-19 12:43:59 51°14.967 2°47.795 83.2 15.3 80 15.6
2004-03-19 12:44:59 51°15.033 2°48.188 83.4 15.4 77 15.4
2004-03-19 12:45:59 51°15.1 2°48.574 82.7 14.6 78 15.5
2004-03-19 12:46:59 51°15.163 2°48.96 81 15.8 76 15.1
2004-03-19 12:47:59 51°15.236 2°49.35 79.8 16.1 72 15.3
2004-03-19 12:48:59 51°15.3 2°49.74 82 15.7 78 15.1
2004-03-19 12:49:59 51°15.353 2°50.133 83.2 14.9 76 15.3
2004-03-19 12:50:59 51°15.398 2°50.534 89.5 15.4 81 15.3
2004-03-19 12:51:59 51°15.425 2°50.933 92.6 15.9 90 14.9
2004-03-19 12:52:59 51°15.428 2°51.338 94.8 15.7 87 15
2004-03-19 12:53:59 51°15.402 2°51.728 119 14.7 107 14.6
2004-03-19 12:54:59 51°15.3 2°52.064 128.2 13.9 117 14.3
2004-03-19 12:55:59 51°15.192 2°52.388 124.4 13.7 117 13.7
2004-03-19 12:56:59 51°15.086 2°52.722 120.6 14.7 120 12.9
2004-03-19 12:57:59 51°14.989 2°53.061 122.7 14.4 113 12.7
2004-03-19 12:58:59 51°14.885 2°53.394 127.5 14 121 12.9
2004-03-19 12:59:59 51°14.777 2°53.726 126.6 14 116 12.5
2004-03-19 13:00:59 51°14.676 2°54.068 125.4 14.5 116 13.3
2004-03-19 13:01:59 51°14.577 2°54.412 123.4 14.4 119 12.9
2004-03-19 13:02:59 51°14.471 2°54.751 124.1 13.8 115 12.8
2004-03-19 13:03:59 51°14.369 2°55.053 129.7 12.2 122 13.1
2004-03-19 13:04:59 51°14.261 2°55.271 136.4 8.7 135 13.1
2004-03-19 13:05:59 51°14.156 2°55.388 156.8 7.1 154 13
2004-03-19 13:06:59 51°14.053 2°55.469 157.6 6.9 153 12.9